sensor_id;sensor_type;location;lat;lon;timestamp;P1;durP1;ratioP1;P2;durP2;ratioP2
44728;SDS011;30457;53.590;9.922;2023-07-13T00:01:06;5.65;;;1.00;;
44728;SDS011;30457;53.590;9.922;2023-07-13T00:05:32;1.45;;;0.75;;
44728;SDS011;30457;53.590;9.922;2023-07-13T00:09:58;4.25;;;1.17;;
44728;SDS011;30457;53.590;9.922;2023-07-13T00:14:25;1.50;;;0.85;;
44728;SDS011;30457;53.590;9.922;2023-07-13T00:18:52;1.73;;;0.80;;
44728;SDS011;30457;53.590;9.922;2023-07-13T00:23:18;0.88;;;0.80;;
44728;SDS011;30457;53.590;9.922;2023-07-13T00:27:44;1.30;;;1.00;;
44728;SDS011;30457;53.590;9.922;2023-07-13T00:32:10;1.13;;;0.93;;
44728;SDS011;30457;53.590;9.922;2023-07-13T00:36:36;3.25;;;1.20;;
44728;SDS011;30457;53.590;9.922;2023-07-13T00:41:02;1.25;;;1.02;;
44728;SDS011;30457;53.590;9.922;2023-07-13T00:49:55;3.22;;;2.35;;
44728;SDS011;30457;53.590;9.922;2023-07-13T00:54:22;1.90;;;1.10;;
44728;SDS011;30457;53.590;9.922;2023-07-13T00:59:00;1.35;;;1.00;;
44728;SDS011;30457;53.590;9.922;2023-07-13T01:03:28;5.28;;;1.30;;
44728;SDS011;30457;53.590;9.922;2023-07-13T01:07:54;2.70;;;1.38;;
44728;SDS011;30457;53.590;9.922;2023-07-13T01:12:20;1.50;;;1.20;;
44728;SDS011;30457;53.590;9.922;2023-07-13T01:16:46;3.55;;;1.48;;
44728;SDS011;30457;53.590;9.922;2023-07-13T01:21:12;1.75;;;1.58;;
44728;SDS011;30457;53.590;9.922;2023-07-13T01:25:39;3.65;;;1.70;;
44728;SDS011;30457;53.590;9.922;2023-07-13T01:30:04;3.78;;;1.60;;
44728;SDS011;30457;53.590;9.922;2023-07-13T01:34:34;2.67;;;1.50;;
44728;SDS011;30457;53.590;9.922;2023-07-13T01:38:59;2.08;;;1.60;;
44728;SDS011;30457;53.590;9.922;2023-07-13T01:43:25;4.63;;;1.73;;
44728;SDS011;30457;53.590;9.922;2023-07-13T01:47:50;3.72;;;1.58;;
44728;SDS011;30457;53.590;9.922;2023-07-13T01:52:16;2.13;;;1.40;;
44728;SDS011;30457;53.590;9.922;2023-07-13T01:56:42;1.88;;;1.70;;
44728;SDS011;30457;53.590;9.922;2023-07-13T02:01:07;1.85;;;1.63;;
44728;SDS011;30457;53.590;9.922;2023-07-13T02:05:33;4.50;;;1.90;;
44728;SDS011;30457;53.590;9.922;2023-07-13T02:09:58;2.42;;;1.90;;
44728;SDS011;30457;53.590;9.922;2023-07-13T02:14:24;3.65;;;1.80;;
44728;SDS011;30457;53.590;9.922;2023-07-13T02:18:49;3.08;;;2.00;;
44728;SDS011;30457;53.590;9.922;2023-07-13T02:23:17;2.05;;;1.90;;
44728;SDS011;30457;53.590;9.922;2023-07-13T02:27:45;1.98;;;1.77;;
44728;SDS011;30457;53.590;9.922;2023-07-13T02:32:11;6.38;;;2.13;;
44728;SDS011;30457;53.590;9.922;2023-07-13T02:36:36;3.70;;;2.60;;
44728;SDS011;30457;53.590;9.922;2023-07-13T02:41:06;2.25;;;1.70;;
44728;SDS011;30457;53.590;9.922;2023-07-13T02:45:33;2.67;;;2.25;;
44728;SDS011;30457;53.590;9.922;2023-07-13T02:49:58;6.55;;;2.22;;
44728;SDS011;30457;53.590;9.922;2023-07-13T02:54:24;2.67;;;2.47;;
44728;SDS011;30457;53.590;9.922;2023-07-13T02:58:50;2.65;;;1.85;;
44728;SDS011;30457;53.590;9.922;2023-07-13T03:03:16;3.67;;;1.77;;
44728;SDS011;30457;53.590;9.922;2023-07-13T03:07:42;2.85;;;2.20;;
44728;SDS011;30457;53.590;9.922;2023-07-13T03:12:09;2.65;;;2.38;;
44728;SDS011;30457;53.590;9.922;2023-07-13T03:16:35;2.90;;;2.10;;
44728;SDS011;30457;53.590;9.922;2023-07-13T03:21:01;5.15;;;2.58;;
44728;SDS011;30457;53.590;9.922;2023-07-13T03:25:27;2.50;;;2.25;;
44728;SDS011;30457;53.590;9.922;2023-07-13T03:29:53;4.65;;;2.03;;
44728;SDS011;30457;53.590;9.922;2023-07-13T03:34:19;9.30;;;2.22;;
44728;SDS011;30457;53.590;9.922;2023-07-13T03:38:56;3.40;;;1.83;;
44728;SDS011;30457;53.590;9.922;2023-07-13T03:43:26;4.70;;;1.65;;
44728;SDS011;30457;53.590;9.922;2023-07-13T03:47:52;2.92;;;2.15;;
44728;SDS011;30457;53.590;9.922;2023-07-13T03:52:17;4.03;;;1.80;;
44728;SDS011;30457;53.590;9.922;2023-07-13T03:56:43;3.40;;;2.25;;
44728;SDS011;30457;53.590;9.922;2023-07-13T04:01:10;2.88;;;2.10;;
44728;SDS011;30457;53.590;9.922;2023-07-13T04:05:38;4.95;;;2.03;;
44728;SDS011;30457;53.590;9.922;2023-07-13T04:10:05;2.28;;;2.08;;
44728;SDS011;30457;53.590;9.922;2023-07-13T04:14:31;4.60;;;2.13;;
44728;SDS011;30457;53.590;9.922;2023-07-13T04:18:58;3.60;;;1.98;;
44728;SDS011;30457;53.590;9.922;2023-07-13T04:23:26;6.53;;;2.20;;
44728;SDS011;30457;53.590;9.922;2023-07-13T04:27:52;3.83;;;3.10;;
44728;SDS011;30457;53.590;9.922;2023-07-13T04:32:18;8.23;;;2.45;;
44728;SDS011;30457;53.590;9.922;2023-07-13T04:36:43;3.08;;;1.80;;
44728;SDS011;30457;53.590;9.922;2023-07-13T04:41:09;2.70;;;2.00;;
44728;SDS011;30457;53.590;9.922;2023-07-13T04:45:35;6.30;;;2.20;;
44728;SDS011;30457;53.590;9.922;2023-07-13T04:50:01;5.28;;;1.80;;
44728;SDS011;30457;53.590;9.922;2023-07-13T04:54:26;2.13;;;1.88;;
44728;SDS011;30457;53.590;9.922;2023-07-13T04:58:52;3.35;;;1.95;;
44728;SDS011;30457;53.590;9.922;2023-07-13T05:03:18;3.50;;;1.92;;
44728;SDS011;30457;53.590;9.922;2023-07-13T05:07:44;6.03;;;1.88;;
44728;SDS011;30457;53.590;9.922;2023-07-13T05:12:09;4.10;;;2.00;;
44728;SDS011;30457;53.590;9.922;2023-07-13T05:16:35;5.38;;;2.67;;
44728;SDS011;30457;53.590;9.922;2023-07-13T05:21:02;4.28;;;2.15;;
44728;SDS011;30457;53.590;9.922;2023-07-13T05:25:30;6.00;;;2.42;;
44728;SDS011;30457;53.590;9.922;2023-07-13T05:29:56;6.45;;;3.13;;
44728;SDS011;30457;53.590;9.922;2023-07-13T05:34:21;5.80;;;2.70;;
44728;SDS011;30457;53.590;9.922;2023-07-13T05:38:47;10.10;;;2.72;;
44728;SDS011;30457;53.590;9.922;2023-07-13T05:43:13;8.27;;;2.55;;
44728;SDS011;30457;53.590;9.922;2023-07-13T05:47:39;8.18;;;2.60;;
44728;SDS011;30457;53.590;9.922;2023-07-13T05:52:04;5.25;;;2.58;;
44728;SDS011;30457;53.590;9.922;2023-07-13T05:56:30;8.75;;;2.35;;
44728;SDS011;30457;53.590;9.922;2023-07-13T06:01:00;8.20;;;2.50;;
44728;SDS011;30457;53.590;9.922;2023-07-13T06:05:28;8.30;;;2.72;;
44728;SDS011;30457;53.590;9.922;2023-07-13T06:09:54;4.18;;;2.20;;
44728;SDS011;30457;53.590;9.922;2023-07-13T06:14:19;7.05;;;2.38;;
44728;SDS011;30457;53.590;9.922;2023-07-13T06:18:45;6.07;;;2.20;;
44728;SDS011;30457;53.590;9.922;2023-07-13T06:23:11;5.93;;;2.13;;
44728;SDS011;30457;53.590;9.922;2023-07-13T06:27:37;7.68;;;2.15;;
44728;SDS011;30457;53.590;9.922;2023-07-13T06:32:02;3.78;;;1.92;;
44728;SDS011;30457;53.590;9.922;2023-07-13T06:36:28;7.60;;;2.20;;
44728;SDS011;30457;53.590;9.922;2023-07-13T06:40:54;5.45;;;2.10;;
44728;SDS011;30457;53.590;9.922;2023-07-13T06:45:19;10.35;;;1.88;;
44728;SDS011;30457;53.590;9.922;2023-07-13T06:49:45;5.20;;;1.95;;
44728;SDS011;30457;53.590;9.922;2023-07-13T06:54:10;8.75;;;2.30;;
44728;SDS011;30457;53.590;9.922;2023-07-13T06:58:36;5.00;;;2.20;;
44728;SDS011;30457;53.590;9.922;2023-07-13T07:03:02;5.93;;;1.85;;
44728;SDS011;30457;53.590;9.922;2023-07-13T07:07:28;6.68;;;2.45;;
44728;SDS011;30457;53.590;9.922;2023-07-13T07:11:53;3.75;;;1.73;;
44728;SDS011;30457;53.590;9.922;2023-07-13T07:16:19;5.72;;;2.42;;
44728;SDS011;30457;53.590;9.922;2023-07-13T07:20:45;3.22;;;1.48;;
44728;SDS011;30457;53.590;9.922;2023-07-13T07:25:11;6.65;;;2.22;;
44728;SDS011;30457;53.590;9.922;2023-07-13T07:29:37;4.78;;;1.52;;
44728;SDS011;30457;53.590;9.922;2023-07-13T07:34:02;6.72;;;1.75;;
44728;SDS011;30457;53.590;9.922;2023-07-13T07:38:28;8.15;;;2.13;;
44728;SDS011;30457;53.590;9.922;2023-07-13T07:42:53;5.97;;;2.10;;
44728;SDS011;30457;53.590;9.922;2023-07-13T07:47:19;4.35;;;1.88;;
44728;SDS011;30457;53.590;9.922;2023-07-13T07:51:45;11.45;;;2.95;;
44728;SDS011;30457;53.590;9.922;2023-07-13T07:56:10;5.43;;;2.20;;
44728;SDS011;30457;53.590;9.922;2023-07-13T08:00:36;5.50;;;1.80;;
44728;SDS011;30457;53.590;9.922;2023-07-13T08:05:02;3.35;;;1.48;;
44728;SDS011;30457;53.590;9.922;2023-07-13T08:09:28;6.03;;;1.63;;
44728;SDS011;30457;53.590;9.922;2023-07-13T08:13:54;9.07;;;1.98;;
44728;SDS011;30457;53.590;9.922;2023-07-13T08:18:20;4.53;;;1.65;;
44728;SDS011;30457;53.590;9.922;2023-07-13T08:22:45;5.25;;;1.23;;
44728;SDS011;30457;53.590;9.922;2023-07-13T08:27:11;5.00;;;1.67;;
44728;SDS011;30457;53.590;9.922;2023-07-13T08:31:37;3.45;;;0.93;;
44728;SDS011;30457;53.590;9.922;2023-07-13T08:36:03;8.00;;;2.25;;
44728;SDS011;30457;53.590;9.922;2023-07-13T08:40:29;8.50;;;2.03;;
44728;SDS011;30457;53.590;9.922;2023-07-13T08:49:30;7.05;;;2.03;;
44728;SDS011;30457;53.590;9.922;2023-07-13T08:53:59;5.85;;;2.53;;
44728;SDS011;30457;53.590;9.922;2023-07-13T08:58:27;6.03;;;1.73;;
44728;SDS011;30457;53.590;9.922;2023-07-13T09:02:57;5.63;;;1.33;;
44728;SDS011;30457;53.590;9.922;2023-07-13T09:07:29;5.30;;;1.70;;
44728;SDS011;30457;53.590;9.922;2023-07-13T09:12:11;4.05;;;1.40;;
44728;SDS011;30457;53.590;9.922;2023-07-13T09:16:54;5.70;;;2.15;;
44728;SDS011;30457;53.590;9.922;2023-07-13T09:21:25;8.05;;;1.83;;
44728;SDS011;30457;53.590;9.922;2023-07-13T09:26:40;6.53;;;1.73;;
44728;SDS011;30457;53.590;9.922;2023-07-13T09:30:46;3.13;;;1.85;;
44728;SDS011;30457;53.590;9.922;2023-07-13T09:35:31;7.70;;;1.98;;
44728;SDS011;30457;53.590;9.922;2023-07-13T09:39:58;5.63;;;1.77;;
44728;SDS011;30457;53.590;9.922;2023-07-13T09:44:36;4.25;;;1.90;;
44728;SDS011;30457;53.590;9.922;2023-07-13T09:49:03;6.97;;;2.03;;
44728;SDS011;30457;53.590;9.922;2023-07-13T09:53:29;5.47;;;1.98;;
44728;SDS011;30457;53.590;9.922;2023-07-13T09:57:56;4.00;;;1.27;;
44728;SDS011;30457;53.590;9.922;2023-07-13T10:07:04;4.85;;;2.13;;
44728;SDS011;30457;53.590;9.922;2023-07-13T10:11:37;3.88;;;2.03;;
44728;SDS011;30457;53.590;9.922;2023-07-13T10:16:06;6.20;;;1.40;;
44728;SDS011;30457;53.590;9.922;2023-07-13T10:20:32;4.82;;;1.90;;
44728;SDS011;30457;53.590;9.922;2023-07-13T10:24:58;3.85;;;1.25;;
44728;SDS011;30457;53.590;9.922;2023-07-13T10:29:26;4.68;;;1.60;;
44728;SDS011;30457;53.590;9.922;2023-07-13T10:33:54;6.72;;;1.40;;
44728;SDS011;30457;53.590;9.922;2023-07-13T10:38:21;3.63;;;1.50;;
44728;SDS011;30457;53.590;9.922;2023-07-13T10:42:49;2.40;;;1.58;;
44728;SDS011;30457;53.590;9.922;2023-07-13T10:47:17;7.35;;;1.50;;
44728;SDS011;30457;53.590;9.922;2023-07-13T10:51:45;2.70;;;1.15;;
44728;SDS011;30457;53.590;9.922;2023-07-13T11:01:14;3.65;;;1.20;;
44728;SDS011;30457;53.590;9.922;2023-07-13T11:05:41;4.35;;;1.40;;
44728;SDS011;30457;53.590;9.922;2023-07-13T11:10:09;2.58;;;1.13;;
44728;SDS011;30457;53.590;9.922;2023-07-13T11:15:13;3.97;;;1.50;;
44728;SDS011;30457;53.590;9.922;2023-07-13T11:19:39;4.05;;;1.52;;
44728;SDS011;30457;53.590;9.922;2023-07-13T11:28:37;5.38;;;1.38;;
44728;SDS011;30457;53.590;9.922;2023-07-13T11:33:14;2.08;;;1.00;;
44728;SDS011;30457;53.590;9.922;2023-07-13T11:37:49;3.25;;;1.15;;
44728;SDS011;30457;53.590;9.922;2023-07-13T11:42:17;2.08;;;1.20;;
44728;SDS011;30457;53.590;9.922;2023-07-13T11:46:44;2.80;;;1.08;;
44728;SDS011;30457;53.590;9.922;2023-07-13T11:51:15;4.05;;;1.30;;
44728;SDS011;30457;53.590;9.922;2023-07-13T11:55:51;4.30;;;1.42;;
44728;SDS011;30457;53.590;9.922;2023-07-13T12:00:17;2.55;;;1.15;;
44728;SDS011;30457;53.590;9.922;2023-07-13T12:04:46;2.88;;;1.00;;
44728;SDS011;30457;53.590;9.922;2023-07-13T12:09:13;1.95;;;1.08;;
44728;SDS011;30457;53.590;9.922;2023-07-13T12:13:43;6.13;;;1.40;;
44728;SDS011;30457;53.590;9.922;2023-07-13T12:18:13;5.40;;;1.90;;
44728;SDS011;30457;53.590;9.922;2023-07-13T12:22:41;2.90;;;1.25;;
44728;SDS011;30457;53.590;9.922;2023-07-13T12:27:22;3.22;;;1.15;;
44728;SDS011;30457;53.590;9.922;2023-07-13T12:31:50;4.32;;;1.00;;
44728;SDS011;30457;53.590;9.922;2023-07-13T12:36:17;4.75;;;1.00;;
44728;SDS011;30457;53.590;9.922;2023-07-13T12:40:43;3.72;;;1.00;;
44728;SDS011;30457;53.590;9.922;2023-07-13T12:45:18;4.13;;;1.38;;
44728;SDS011;30457;53.590;9.922;2023-07-13T12:49:54;4.60;;;1.50;;
44728;SDS011;30457;53.590;9.922;2023-07-13T12:54:22;3.80;;;1.15;;
44728;SDS011;30457;53.590;9.922;2023-07-13T12:58:48;3.60;;;1.27;;
44728;SDS011;30457;53.590;9.922;2023-07-13T13:03:26;1.92;;;0.98;;
44728;SDS011;30457;53.590;9.922;2023-07-13T13:08:02;3.63;;;0.98;;
44728;SDS011;30457;53.590;9.922;2023-07-13T13:12:28;3.35;;;1.55;;
44728;SDS011;30457;53.590;9.922;2023-07-13T13:16:53;3.33;;;1.17;;
44728;SDS011;30457;53.590;9.922;2023-07-13T13:21:19;2.97;;;1.08;;
44728;SDS011;30457;53.590;9.922;2023-07-13T13:25:46;1.17;;;0.85;;
44728;SDS011;30457;53.590;9.922;2023-07-13T13:30:15;3.33;;;1.05;;
44728;SDS011;30457;53.590;9.922;2023-07-13T13:34:42;4.55;;;1.10;;
44728;SDS011;30457;53.590;9.922;2023-07-13T13:39:21;3.38;;;1.23;;
44728;SDS011;30457;53.590;9.922;2023-07-13T13:43:52;3.38;;;0.95;;
44728;SDS011;30457;53.590;9.922;2023-07-13T13:48:18;2.45;;;0.98;;
44728;SDS011;30457;53.590;9.922;2023-07-13T13:52:47;2.35;;;1.00;;
44728;SDS011;30457;53.590;9.922;2023-07-13T13:57:12;3.75;;;1.38;;
44728;SDS011;30457;53.590;9.922;2023-07-13T14:01:39;1.70;;;1.17;;
44728;SDS011;30457;53.590;9.922;2023-07-13T14:06:07;1.45;;;0.90;;
44728;SDS011;30457;53.590;9.922;2023-07-13T14:10:37;2.28;;;0.93;;
44728;SDS011;30457;53.590;9.922;2023-07-13T14:15:02;1.88;;;0.95;;
44728;SDS011;30457;53.590;9.922;2023-07-13T14:19:28;2.80;;;1.40;;
44728;SDS011;30457;53.590;9.922;2023-07-13T14:23:54;1.38;;;1.23;;
44728;SDS011;30457;53.590;9.922;2023-07-13T14:32:48;3.80;;;1.00;;
44728;SDS011;30457;53.590;9.922;2023-07-13T14:37:14;3.63;;;1.00;;
44728;SDS011;30457;53.590;9.922;2023-07-13T14:41:41;1.20;;;0.90;;
44728;SDS011;30457;53.590;9.922;2023-07-13T14:46:07;2.30;;;1.33;;
44728;SDS011;30457;53.590;9.922;2023-07-13T14:50:43;2.70;;;1.00;;
44728;SDS011;30457;53.590;9.922;2023-07-13T14:55:15;3.08;;;1.30;;
44728;SDS011;30457;53.590;9.922;2023-07-13T14:59:42;2.35;;;1.20;;
44728;SDS011;30457;53.590;9.922;2023-07-13T15:04:11;2.10;;;1.10;;
44728;SDS011;30457;53.590;9.922;2023-07-13T15:08:36;2.72;;;1.13;;
44728;SDS011;30457;53.590;9.922;2023-07-13T15:13:13;3.70;;;1.45;;
44728;SDS011;30457;53.590;9.922;2023-07-13T15:17:44;3.25;;;1.30;;
44728;SDS011;30457;53.590;9.922;2023-07-13T15:22:11;2.35;;;1.40;;
44728;SDS011;30457;53.590;9.922;2023-07-13T15:26:37;1.40;;;1.15;;
44728;SDS011;30457;53.590;9.922;2023-07-13T15:31:05;1.67;;;1.20;;
44728;SDS011;30457;53.590;9.922;2023-07-13T15:35:47;1.95;;;1.20;;
44728;SDS011;30457;53.590;9.922;2023-07-13T15:40:13;1.88;;;1.08;;
44728;SDS011;30457;53.590;9.922;2023-07-13T15:44:39;2.17;;;1.02;;
44728;SDS011;30457;53.590;9.922;2023-07-13T15:49:08;1.13;;;1.00;;
44728;SDS011;30457;53.590;9.922;2023-07-13T15:53:34;1.13;;;0.82;;
44728;SDS011;30457;53.590;9.922;2023-07-13T15:58:03;2.45;;;2.00;;
44728;SDS011;30457;53.590;9.922;2023-07-13T16:02:28;2.05;;;0.90;;
44728;SDS011;30457;53.590;9.922;2023-07-13T16:06:54;1.95;;;0.95;;
44728;SDS011;30457;53.590;9.922;2023-07-13T16:11:27;1.75;;;0.88;;
44728;SDS011;30457;53.590;9.922;2023-07-13T16:15:57;1.90;;;0.77;;
44728;SDS011;30457;53.590;9.922;2023-07-13T16:20:23;3.22;;;1.23;;
44728;SDS011;30457;53.590;9.922;2023-07-13T16:24:49;1.10;;;0.90;;
44728;SDS011;30457;53.590;9.922;2023-07-13T16:29:21;20.98;;;1.15;;
44728;SDS011;30457;53.590;9.922;2023-07-13T16:33:48;1.70;;;0.90;;
44728;SDS011;30457;53.590;9.922;2023-07-13T16:38:18;2.78;;;0.75;;
44728;SDS011;30457;53.590;9.922;2023-07-13T16:42:45;4.10;;;0.68;;
44728;SDS011;30457;53.590;9.922;2023-07-13T16:47:14;12.98;;;1.10;;
44728;SDS011;30457;53.590;9.922;2023-07-13T16:51:41;2.63;;;1.38;;
44728;SDS011;30457;53.590;9.922;2023-07-13T16:56:08;2.38;;;0.70;;
44728;SDS011;30457;53.590;9.922;2023-07-13T17:00:39;5.30;;;1.00;;
44728;SDS011;30457;53.590;9.922;2023-07-13T17:05:04;1.80;;;0.90;;
44728;SDS011;30457;53.590;9.922;2023-07-13T17:09:31;2.67;;;0.73;;
44728;SDS011;30457;53.590;9.922;2023-07-13T17:13:56;1.00;;;0.70;;
44728;SDS011;30457;53.590;9.922;2023-07-13T17:18:23;2.17;;;0.77;;
44728;SDS011;30457;53.590;9.922;2023-07-13T17:22:51;3.90;;;1.60;;
44728;SDS011;30457;53.590;9.922;2023-07-13T17:27:18;3.47;;;0.90;;
44728;SDS011;30457;53.590;9.922;2023-07-13T17:31:43;1.40;;;0.88;;
44728;SDS011;30457;53.590;9.922;2023-07-13T17:36:13;4.70;;;1.58;;
44728;SDS011;30457;53.590;9.922;2023-07-13T17:40:40;2.80;;;0.88;;
44728;SDS011;30457;53.590;9.922;2023-07-13T17:45:06;1.50;;;0.63;;
44728;SDS011;30457;53.590;9.922;2023-07-13T17:49:32;4.22;;;1.90;;
44728;SDS011;30457;53.590;9.922;2023-07-13T17:53:58;1.95;;;0.60;;
44728;SDS011;30457;53.590;9.922;2023-07-13T17:58:24;3.42;;;1.20;;
44728;SDS011;30457;53.590;9.922;2023-07-13T18:02:49;2.22;;;0.90;;
44728;SDS011;30457;53.590;9.922;2023-07-13T18:07:15;2.08;;;0.88;;
44728;SDS011;30457;53.590;9.922;2023-07-13T18:11:42;3.55;;;0.88;;
44728;SDS011;30457;53.590;9.922;2023-07-13T18:16:15;8.73;;;2.08;;
44728;SDS011;30457;53.590;9.922;2023-07-13T18:20:44;1.27;;;0.90;;
44728;SDS011;30457;53.590;9.922;2023-07-13T18:25:14;1.85;;;1.00;;
44728;SDS011;30457;53.590;9.922;2023-07-13T18:29:42;1.40;;;0.80;;
44728;SDS011;30457;53.590;9.922;2023-07-13T18:34:08;3.22;;;0.82;;
44728;SDS011;30457;53.590;9.922;2023-07-13T18:38:34;1.83;;;1.27;;
44728;SDS011;30457;53.590;9.922;2023-07-13T18:43:02;1.92;;;1.15;;
44728;SDS011;30457;53.590;9.922;2023-07-13T18:47:28;1.35;;;0.90;;
44728;SDS011;30457;53.590;9.922;2023-07-13T18:51:59;3.28;;;1.02;;
44728;SDS011;30457;53.590;9.922;2023-07-13T18:56:24;1.83;;;0.88;;
44728;SDS011;30457;53.590;9.922;2023-07-13T19:00:51;1.95;;;1.10;;
44728;SDS011;30457;53.590;9.922;2023-07-13T19:05:23;2.25;;;1.38;;
44728;SDS011;30457;53.590;9.922;2023-07-13T19:09:54;5.70;;;1.40;;
44728;SDS011;30457;53.590;9.922;2023-07-13T19:14:21;1.35;;;0.75;;
44728;SDS011;30457;53.590;9.922;2023-07-13T19:18:48;1.85;;;0.90;;
44728;SDS011;30457;53.590;9.922;2023-07-13T19:23:32;1.77;;;0.80;;
44728;SDS011;30457;53.590;9.922;2023-07-13T19:28:21;1.05;;;0.68;;
44728;SDS011;30457;53.590;9.922;2023-07-13T19:32:56;4.05;;;0.90;;
44728;SDS011;30457;53.590;9.922;2023-07-13T19:37:24;0.93;;;0.88;;
44728;SDS011;30457;53.590;9.922;2023-07-13T19:41:49;2.10;;;0.95;;
44728;SDS011;30457;53.590;9.922;2023-07-13T19:46:24;1.90;;;1.20;;
44728;SDS011;30457;53.590;9.922;2023-07-13T19:50:54;1.60;;;1.08;;
44728;SDS011;30457;53.590;9.922;2023-07-13T19:55:20;2.15;;;0.98;;
44728;SDS011;30457;53.590;9.922;2023-07-13T19:59:46;1.08;;;0.80;;
44728;SDS011;30457;53.590;9.922;2023-07-13T20:04:16;0.90;;;0.90;;
44728;SDS011;30457;53.590;9.922;2023-07-13T20:08:42;0.80;;;0.70;;
44728;SDS011;30457;53.590;9.922;2023-07-13T20:13:11;0.75;;;0.75;;
44728;SDS011;30457;53.590;9.922;2023-07-13T20:17:40;1.50;;;0.77;;
44728;SDS011;30457;53.590;9.922;2023-07-13T20:22:09;1.77;;;0.90;;
44728;SDS011;30457;53.590;9.922;2023-07-13T20:26:36;1.05;;;0.70;;
44728;SDS011;30457;53.590;9.922;2023-07-13T20:31:02;1.23;;;0.80;;
44728;SDS011;30457;53.590;9.922;2023-07-13T20:35:30;0.70;;;0.70;;
44728;SDS011;30457;53.590;9.922;2023-07-13T20:39:58;0.70;;;0.70;;
44728;SDS011;30457;53.590;9.922;2023-07-13T20:44:24;1.58;;;0.80;;
44728;SDS011;30457;53.590;9.922;2023-07-13T20:48:50;0.68;;;0.63;;
44728;SDS011;30457;53.590;9.922;2023-07-13T20:53:16;0.70;;;0.68;;
44728;SDS011;30457;53.590;9.922;2023-07-13T20:57:42;0.75;;;0.65;;
44728;SDS011;30457;53.590;9.922;2023-07-13T21:02:21;4.22;;;1.00;;
44728;SDS011;30457;53.590;9.922;2023-07-13T21:06:52;0.85;;;0.73;;
44728;SDS011;30457;53.590;9.922;2023-07-13T21:11:17;1.13;;;0.80;;
44728;SDS011;30457;53.590;9.922;2023-07-13T21:15:44;1.27;;;0.98;;
44728;SDS011;30457;53.590;9.922;2023-07-13T21:20:13;2.35;;;0.85;;
44728;SDS011;30457;53.590;9.922;2023-07-13T21:24:42;2.55;;;1.00;;
44728;SDS011;30457;53.590;9.922;2023-07-13T21:29:08;10.00;;;1.35;;
44728;SDS011;30457;53.590;9.922;2023-07-13T21:33:34;3.25;;;1.02;;
44728;SDS011;30457;53.590;9.922;2023-07-13T21:38:01;0.80;;;0.80;;
44728;SDS011;30457;53.590;9.922;2023-07-13T21:42:27;1.80;;;0.95;;
44728;SDS011;30457;53.590;9.922;2023-07-13T21:46:52;0.85;;;0.85;;
44728;SDS011;30457;53.590;9.922;2023-07-13T21:51:21;1.70;;;1.00;;
44728;SDS011;30457;53.590;9.922;2023-07-13T21:55:48;1.15;;;0.90;;
44728;SDS011;30457;53.590;9.922;2023-07-13T22:00:17;1.30;;;1.20;;
44728;SDS011;30457;53.590;9.922;2023-07-13T22:04:44;3.67;;;1.60;;
44728;SDS011;30457;53.590;9.922;2023-07-13T22:09:14;2.35;;;1.10;;
44728;SDS011;30457;53.590;9.922;2023-07-13T22:13:42;2.83;;;1.83;;
44728;SDS011;30457;53.590;9.922;2023-07-13T22:18:11;1.55;;;1.45;;
44728;SDS011;30457;53.590;9.922;2023-07-13T22:22:42;5.50;;;2.20;;
44728;SDS011;30457;53.590;9.922;2023-07-13T22:27:09;3.13;;;1.38;;
44728;SDS011;30457;53.590;9.922;2023-07-13T22:31:35;1.50;;;1.38;;
44728;SDS011;30457;53.590;9.922;2023-07-13T22:36:01;3.00;;;1.15;;
44728;SDS011;30457;53.590;9.922;2023-07-13T22:40:27;2.08;;;1.40;;
44728;SDS011;30457;53.590;9.922;2023-07-13T22:44:54;1.42;;;1.30;;
44728;SDS011;30457;53.590;9.922;2023-07-13T22:49:20;2.80;;;1.75;;
44728;SDS011;30457;53.590;9.922;2023-07-13T22:53:50;1.63;;;1.48;;
44728;SDS011;30457;53.590;9.922;2023-07-13T22:58:17;2.30;;;1.90;;
44728;SDS011;30457;53.590;9.922;2023-07-13T23:02:43;1.80;;;1.55;;
44728;SDS011;30457;53.590;9.922;2023-07-13T23:07:10;1.73;;;1.63;;
44728;SDS011;30457;53.590;9.922;2023-07-13T23:11:36;5.78;;;2.03;;
44728;SDS011;30457;53.590;9.922;2023-07-13T23:16:01;4.40;;;1.80;;
44728;SDS011;30457;53.590;9.922;2023-07-13T23:20:28;3.00;;;1.50;;
44728;SDS011;30457;53.590;9.922;2023-07-13T23:24:56;3.00;;;1.55;;
44728;SDS011;30457;53.590;9.922;2023-07-13T23:29:21;5.75;;;1.90;;
44728;SDS011;30457;53.590;9.922;2023-07-13T23:33:47;1.58;;;1.33;;
44728;SDS011;30457;53.590;9.922;2023-07-13T23:38:14;5.63;;;1.60;;
44728;SDS011;30457;53.590;9.922;2023-07-13T23:42:40;5.03;;;2.10;;
44728;SDS011;30457;53.590;9.922;2023-07-13T23:47:07;2.22;;;1.90;;
44728;SDS011;30457;53.590;9.922;2023-07-13T23:51:33;2.20;;;2.00;;
44728;SDS011;30457;53.590;9.922;2023-07-13T23:55:59;4.50;;;1.65;;
